createdAt,value
2023-05-21T00:00:11.951Z,101312.75
2023-05-21T00:02:59.074Z,101320.66
2023-05-21T00:05:45.083Z,101325.13
2023-05-21T00:08:30.582Z,101319.66
2023-05-21T00:11:15.770Z,101314.59
2023-05-21T00:14:00.926Z,101319.03
2023-05-21T00:16:46.977Z,101309.50
2023-05-21T00:19:34.163Z,101308.63
2023-05-21T00:22:20.083Z,101298.19
2023-05-21T00:25:05.835Z,101300.81
2023-05-21T00:27:50.833Z,101295.63
2023-05-21T00:30:36.078Z,101295.84
2023-05-21T00:33:21.703Z,101296.00
2023-05-21T00:36:07.956Z,101298.06
2023-05-21T00:38:53.798Z,101287.69
2023-05-21T00:41:40.443Z,101283.63
2023-05-21T00:44:26.950Z,101282.66
2023-05-21T00:47:13.799Z,101289.06
2023-05-21T00:49:59.238Z,101280.13
2023-05-21T00:52:46.154Z,101278.41
2023-05-21T00:55:31.145Z,101278.59
2023-05-21T00:58:17.791Z,101282.28
2023-05-21T01:01:03.799Z,101261.97
2023-05-21T01:03:49.192Z,101264.22
2023-05-21T01:06:35.057Z,101274.81
2023-05-21T01:09:20.345Z,101259.94
2023-05-21T01:12:06.448Z,101269.28
2023-05-21T01:14:51.946Z,101262.22
2023-05-21T01:17:37.098Z,101259.50
2023-05-21T01:20:24.147Z,101255.53
2023-05-21T01:23:08.793Z,101261.72
2023-05-21T01:25:54.055Z,101256.84
2023-05-21T01:28:39.368Z,101254.06
2023-05-21T01:31:30.438Z,101255.75
2023-05-21T01:34:19.397Z,101259.47
2023-05-21T01:37:27.051Z,101253.38
2023-05-21T01:40:25.954Z,101248.75
2023-05-21T01:43:11.607Z,101247.03
2023-05-21T01:45:57.392Z,101254.06
2023-05-21T01:48:43.757Z,101248.06
2023-05-21T01:51:28.987Z,101241.66
2023-05-21T01:54:14.415Z,101245.69
2023-05-21T01:56:59.992Z,101242.34
2023-05-21T01:59:45.524Z,101248.63
2023-05-21T02:02:30.572Z,101240.75
2023-05-21T02:05:16.221Z,101242.13
2023-05-21T02:08:01.363Z,101246.09
2023-05-21T02:10:46.169Z,101245.13
2023-05-21T02:13:32.619Z,101237.97
2023-05-21T02:16:18.099Z,101239.22
2023-05-21T02:19:05.038Z,101243.47
2023-05-21T02:21:50.243Z,101240.28
2023-05-21T02:24:34.968Z,101240.88
2023-05-21T02:27:19.926Z,101239.50
2023-05-21T02:30:07.104Z,101245.13
2023-05-21T02:32:52.189Z,101245.03
2023-05-21T02:35:37.302Z,101245.34
2023-05-21T02:38:23.069Z,101247.66
2023-05-21T02:41:08.598Z,101243.69
2023-05-21T02:43:53.714Z,101244.53
2023-05-21T02:46:38.644Z,101240.00
2023-05-21T02:49:23.856Z,101235.25
2023-05-21T02:52:08.779Z,101238.03
2023-05-21T02:54:53.906Z,101234.16
2023-05-21T02:57:38.749Z,101231.00
2023-05-21T03:00:23.561Z,101230.03
2023-05-21T03:03:09.228Z,101232.50
2023-05-21T03:05:54.851Z,101227.69
2023-05-21T03:08:39.912Z,101225.19
2023-05-21T03:11:24.755Z,101222.78
2023-05-21T03:14:09.930Z,101226.91
2023-05-21T03:16:54.962Z,101227.28
2023-05-21T03:19:42.040Z,101223.97
2023-05-21T03:22:27.060Z,101218.81
2023-05-21T03:25:13.657Z,101214.09
2023-05-21T03:27:59.026Z,101212.13
2023-05-21T03:30:49.472Z,101210.09
2023-05-21T03:33:34.431Z,101212.50
2023-05-21T03:36:20.056Z,101210.31
2023-05-21T03:39:05.693Z,101207.56
2023-05-21T03:41:51.063Z,101212.84
2023-05-21T03:44:36.628Z,101210.34
2023-05-21T03:47:21.520Z,101200.78
2023-05-21T03:50:08.524Z,101200.56
2023-05-21T03:52:53.724Z,101207.66
2023-05-21T03:55:39.253Z,101218.13
2023-05-21T03:58:24.649Z,101214.16
2023-05-21T04:01:10.617Z,101211.53
2023-05-21T04:03:55.958Z,101212.00
2023-05-21T04:06:42.807Z,101205.63
2023-05-21T04:09:27.983Z,101210.88
2023-05-21T04:12:13.051Z,101213.78
2023-05-21T04:14:58.136Z,101213.13
2023-05-21T04:17:43.401Z,101214.78
2023-05-21T04:20:28.049Z,101220.03
2023-05-21T04:23:12.885Z,101212.69
2023-05-21T04:25:57.802Z,101214.94
2023-05-21T04:28:42.992Z,101227.31
2023-05-21T04:31:28.033Z,101221.56
2023-05-21T04:34:13.567Z,101218.66
2023-05-21T04:36:58.635Z,101210.78
2023-05-21T04:39:44.709Z,101209.50
2023-05-21T04:42:30.338Z,101214.94
2023-05-21T04:45:15.567Z,101215.94
2023-05-21T04:48:00.461Z,101222.88
2023-05-21T04:50:46.863Z,101221.13
2023-05-21T04:53:31.538Z,101224.38
2023-05-21T04:56:20.245Z,101224.31
2023-05-21T04:59:06.628Z,101224.03
2023-05-21T05:01:51.691Z,101221.34
2023-05-21T05:04:38.144Z,101216.94
2023-05-21T05:07:23.676Z,101216.69
2023-05-21T05:10:09.270Z,101211.19
2023-05-21T05:12:54.768Z,101212.06
2023-05-21T05:15:39.696Z,101212.06
2023-05-21T05:18:24.559Z,101211.81
2023-05-21T05:21:09.637Z,101208.78
2023-05-21T05:23:54.757Z,101215.59
2023-05-21T05:26:40.116Z,101216.91
2023-05-21T05:29:24.892Z,101220.25
2023-05-21T05:32:10.206Z,101219.09
2023-05-21T05:34:55.413Z,101222.78
2023-05-21T05:37:40.937Z,101214.31
2023-05-21T05:40:25.992Z,101215.09
2023-05-21T05:43:11.147Z,101219.03
2023-05-21T05:45:57.029Z,101216.72
2023-05-21T05:48:41.755Z,101220.22
2023-05-21T05:51:27.008Z,101219.84
2023-05-21T05:54:11.881Z,101214.56
2023-05-21T05:56:56.674Z,101216.97
2023-05-21T05:59:41.837Z,101216.75
2023-05-21T06:02:27.058Z,101210.44
2023-05-21T06:05:12.080Z,101217.66
2023-05-21T06:07:56.861Z,101210.00
2023-05-21T06:10:42.152Z,101209.16
2023-05-21T06:13:27.071Z,101204.75
2023-05-21T06:16:13.000Z,101208.72
2023-05-21T06:18:58.053Z,101203.28
2023-05-21T06:21:43.393Z,101202.84
2023-05-21T06:24:28.637Z,101194.56
2023-05-21T06:27:13.636Z,101196.28
2023-05-21T06:29:58.572Z,101194.66
2023-05-21T06:32:44.159Z,101201.06
2023-05-21T06:35:29.235Z,101200.56
2023-05-21T06:38:14.000Z,101197.97
2023-05-21T06:40:58.978Z,101199.59
2023-05-21T06:43:44.088Z,101201.53
2023-05-21T06:46:29.055Z,101199.94
2023-05-21T06:49:14.917Z,101204.28
2023-05-21T06:51:59.720Z,101205.31
2023-05-21T06:54:44.941Z,101207.59
2023-05-21T06:57:29.684Z,101198.19
2023-05-21T07:00:14.896Z,101211.94
2023-05-21T07:03:00.384Z,101203.31
2023-05-21T07:05:45.184Z,101203.03
2023-05-21T07:08:30.400Z,101204.03
2023-05-21T07:11:15.912Z,101203.69
2023-05-21T07:14:01.699Z,101211.00
2023-05-21T07:16:47.421Z,101210.25
2023-05-21T07:19:32.797Z,101209.44
2023-05-21T07:22:18.275Z,101219.59
2023-05-21T07:25:03.260Z,101218.13
2023-05-21T07:27:48.495Z,101211.16
2023-05-21T07:30:33.220Z,101207.00
2023-05-21T07:33:20.549Z,101209.69
2023-05-21T07:36:06.211Z,101210.50
2023-05-21T07:38:51.580Z,101202.50
2023-05-21T07:41:37.698Z,101209.81
2023-05-21T07:44:22.782Z,101199.13
2023-05-21T07:47:08.148Z,101192.72
2023-05-21T07:49:53.077Z,101186.28
2023-05-21T07:52:38.250Z,101189.63
2023-05-21T07:55:23.103Z,101185.16
2023-05-21T07:58:08.001Z,101190.38
2023-05-21T08:00:53.163Z,101185.72
2023-05-21T08:03:38.207Z,101185.19
2023-05-21T08:06:24.264Z,101189.16
2023-05-21T08:09:09.823Z,101189.38
2023-05-21T08:11:54.713Z,101190.28
2023-05-21T08:14:41.427Z,101190.41
2023-05-21T08:17:28.326Z,101187.91
2023-05-21T08:20:15.714Z,101194.75
2023-05-21T08:23:01.127Z,101186.22
2023-05-21T08:25:46.242Z,101192.94
2023-05-21T08:28:32.337Z,101193.88
2023-05-21T08:31:21.087Z,101189.63
2023-05-21T08:34:05.863Z,101193.22
2023-05-21T08:36:51.341Z,101196.81
2023-05-21T08:39:36.501Z,101195.19
2023-05-21T08:42:42.724Z,101193.09
2023-05-21T08:45:37.543Z,101193.69
2023-05-21T08:48:24.865Z,101197.13
2023-05-21T08:51:09.800Z,101197.06
2023-05-21T08:53:55.935Z,101191.91
2023-05-21T08:56:49.185Z,101196.34
2023-05-21T08:59:36.854Z,101187.47
2023-05-21T09:02:21.993Z,101187.31
2023-05-21T09:05:09.585Z,101186.47
2023-05-21T09:08:14.223Z,101186.63
2023-05-21T09:11:02.290Z,101190.53
2023-05-21T09:13:48.486Z,101185.91
2023-05-21T09:16:33.983Z,101190.69
2023-05-21T09:19:22.353Z,101188.00
2023-05-21T09:22:07.485Z,101185.25
2023-05-21T09:24:52.268Z,101184.69
2023-05-21T09:27:37.819Z,101194.47
2023-05-21T09:30:25.477Z,101188.88
2023-05-21T09:33:12.041Z,101194.91
2023-05-21T09:35:57.968Z,101185.53
2023-05-21T09:38:44.926Z,101188.69
2023-05-21T09:41:34.895Z,101183.16
2023-05-21T09:44:20.036Z,101185.09
2023-05-21T09:47:05.881Z,101179.16
2023-05-21T09:49:50.889Z,101169.28
2023-05-21T09:52:41.994Z,101175.22
2023-05-21T09:55:29.920Z,101172.88
2023-05-21T09:58:15.153Z,101172.69
2023-05-21T10:01:00.545Z,101169.56
2023-05-21T10:03:50.761Z,101163.78
2023-05-21T10:06:41.755Z,101161.59
2023-05-21T10:09:28.888Z,101163.66
2023-05-21T10:12:15.274Z,101161.50
2023-05-21T10:15:03.392Z,101157.34
2023-05-21T10:17:50.283Z,101149.03
2023-05-21T10:20:36.141Z,101152.66
2023-05-21T10:23:24.371Z,101151.81
2023-05-21T10:26:10.646Z,101154.50
2023-05-21T10:28:57.127Z,101139.06
2023-05-21T10:31:46.725Z,101154.13
2023-05-21T10:34:32.871Z,101146.13
2023-05-21T10:37:18.238Z,101145.25
2023-05-21T10:40:04.428Z,101143.31
2023-05-21T10:43:11.081Z,101141.00
2023-05-21T10:46:12.487Z,101140.88
2023-05-21T10:49:12.336Z,101138.97
2023-05-21T10:52:06.311Z,101132.25
2023-05-21T10:55:20.274Z,101135.00
2023-05-21T10:58:30.844Z,101127.75
2023-05-21T11:01:19.148Z,101121.94
2023-05-21T11:04:06.429Z,101129.63
2023-05-21T11:06:52.036Z,101122.50
2023-05-21T11:09:37.962Z,101124.28
2023-05-21T11:12:23.551Z,101125.94
2023-05-21T11:15:09.191Z,101114.72
2023-05-21T11:17:56.917Z,101115.28
2023-05-21T11:20:50.417Z,101114.84
2023-05-21T11:23:50.486Z,101114.31
2023-05-21T11:26:48.283Z,101109.75
2023-05-21T11:29:40.498Z,101108.13
2023-05-21T11:32:25.412Z,101105.78
2023-05-21T11:35:13.971Z,101099.75
2023-05-21T11:37:59.390Z,101104.06
2023-05-21T11:40:55.651Z,101097.16
2023-05-21T11:43:40.830Z,101091.38
2023-05-21T11:46:25.893Z,101094.56
2023-05-21T11:49:12.618Z,101079.31
2023-05-21T11:51:59.584Z,101082.59
2023-05-21T11:54:48.276Z,101089.72
2023-05-21T11:57:33.538Z,101087.16
2023-05-21T12:00:18.445Z,101091.88
2023-05-21T12:03:06.763Z,101089.66
2023-05-21T12:05:52.337Z,101091.88
2023-05-21T12:08:38.261Z,101083.91
2023-05-21T12:11:23.666Z,101079.25
2023-05-21T12:14:11.584Z,101074.91
2023-05-21T12:16:57.910Z,101084.34
2023-05-21T12:19:43.530Z,101084.31
2023-05-21T12:22:30.644Z,101076.72
2023-05-21T12:25:19.770Z,101070.78
2023-05-21T12:28:06.145Z,101071.13
2023-05-21T12:30:51.402Z,101076.41
2023-05-21T12:33:36.332Z,101075.47
2023-05-21T12:36:34.277Z,101068.81
2023-05-21T12:39:22.005Z,101071.75
2023-05-21T12:42:07.294Z,101060.34
2023-05-21T12:44:52.794Z,101051.47
2023-05-21T12:47:41.588Z,101064.06
2023-05-21T12:50:26.999Z,101054.16
2023-05-21T12:53:12.174Z,101060.53
2023-05-21T12:56:10.647Z,101058.25
2023-05-21T12:58:56.773Z,101053.78
2023-05-21T13:01:41.998Z,101049.78
2023-05-21T13:04:28.280Z,101059.03
2023-05-21T13:07:15.931Z,101049.50
2023-05-21T13:10:02.445Z,101046.28
2023-05-21T13:12:47.575Z,101042.50
2023-05-21T13:15:33.945Z,101047.28
2023-05-21T13:18:20.808Z,101039.66
2023-05-21T13:21:06.117Z,101034.84
2023-05-21T13:23:51.356Z,101035.25
2023-05-21T13:26:36.635Z,101016.66
2023-05-21T13:29:21.476Z,101025.84
2023-05-21T13:32:07.689Z,101017.91
2023-05-21T13:34:52.768Z,101014.66
2023-05-21T13:37:42.134Z,101015.81
2023-05-21T13:40:27.401Z,101011.69
2023-05-21T13:43:12.292Z,101014.13
2023-05-21T13:45:57.510Z,101013.94
2023-05-21T13:48:43.276Z,101016.19
2023-05-21T13:51:38.725Z,101009.00
2023-05-21T13:54:24.488Z,100998.25
2023-05-21T13:57:10.683Z,101012.50
2023-05-21T13:59:58.835Z,101012.91
2023-05-21T14:02:44.388Z,101005.72
2023-05-21T14:05:29.447Z,101000.66
2023-05-21T14:08:16.750Z,100999.44
2023-05-21T14:11:04.089Z,100998.94
2023-05-21T14:13:49.887Z,101001.47
2023-05-21T14:16:35.230Z,100996.03
2023-05-21T14:19:21.692Z,100998.66
2023-05-21T14:22:06.991Z,100997.81
2023-05-21T14:24:52.720Z,100991.16
2023-05-21T14:27:38.127Z,100985.84
2023-05-21T14:30:23.212Z,100992.13
2023-05-21T14:33:08.325Z,100988.41
2023-05-21T14:35:53.420Z,100985.09
2023-05-21T14:38:38.439Z,100991.91
2023-05-21T14:41:27.775Z,100982.03
2023-05-21T14:44:13.002Z,100978.78
2023-05-21T14:46:58.431Z,100980.03
2023-05-21T14:49:43.734Z,100982.03
2023-05-21T14:52:28.689Z,100978.94
2023-05-21T14:55:16.386Z,100985.25
2023-05-21T14:58:01.989Z,100982.56
2023-05-21T15:00:46.843Z,100983.72
2023-05-21T15:03:32.505Z,100977.78
2023-05-21T15:06:17.819Z,100982.03
2023-05-21T15:09:02.951Z,100971.84
2023-05-21T15:11:52.743Z,100974.97
2023-05-21T15:14:38.070Z,100963.38
2023-05-21T15:17:22.946Z,100974.81
2023-05-21T15:20:09.304Z,100974.53
2023-05-21T15:23:05.064Z,100965.63
2023-05-21T15:25:59.323Z,100970.38
2023-05-21T15:28:44.762Z,100959.91
2023-05-21T15:31:31.339Z,100964.38
2023-05-21T15:34:18.306Z,100964.59
2023-05-21T15:37:04.293Z,100955.25
2023-05-21T15:39:49.637Z,100961.09
2023-05-21T15:42:34.927Z,100947.84
2023-05-21T15:45:21.315Z,100952.75
2023-05-21T15:48:06.948Z,100951.56
2023-05-21T15:50:51.890Z,100949.53
2023-05-21T15:53:36.777Z,100945.69
2023-05-21T15:56:22.808Z,100943.06
2023-05-21T15:59:08.322Z,100950.81
2023-05-21T16:01:54.630Z,100947.44
2023-05-21T16:04:39.540Z,100948.56
2023-05-21T16:07:24.635Z,100944.16
2023-05-21T16:10:10.529Z,100942.88
2023-05-21T16:12:55.410Z,100940.84
2023-05-21T16:15:40.597Z,100939.94
2023-05-21T16:18:25.538Z,100943.00
2023-05-21T16:21:10.654Z,100934.09
2023-05-21T16:23:56.696Z,100927.84
2023-05-21T16:26:41.635Z,100934.31
2023-05-21T16:29:26.971Z,100938.38
2023-05-21T16:32:13.764Z,100931.84
2023-05-21T16:34:58.988Z,100935.56
2023-05-21T16:37:47.376Z,100926.28
2023-05-21T16:40:32.561Z,100930.06
2023-05-21T16:43:17.470Z,100927.06
2023-05-21T16:46:05.261Z,100919.16
2023-05-21T16:48:50.136Z,100924.84
2023-05-21T16:51:34.998Z,100925.13
2023-05-21T16:54:20.108Z,100921.03
2023-05-21T16:57:05.409Z,100923.66
2023-05-21T16:59:52.879Z,100920.56
2023-05-21T17:02:38.272Z,100922.59
2023-05-21T17:05:24.061Z,100931.91
2023-05-21T17:08:09.348Z,100926.88
2023-05-21T17:10:55.362Z,100929.41
2023-05-21T17:13:40.441Z,100932.06
2023-05-21T17:16:25.495Z,100931.94
2023-05-21T17:19:10.767Z,100929.91
2023-05-21T17:21:56.234Z,100929.72
2023-05-21T17:24:41.241Z,100933.16
2023-05-21T17:27:27.051Z,100928.41
2023-05-21T17:30:12.393Z,100931.50
2023-05-21T17:32:59.188Z,100935.59
2023-05-21T17:35:47.298Z,100926.41
2023-05-21T17:38:34.582Z,100931.56
2023-05-21T17:41:20.106Z,100927.56
2023-05-21T17:44:05.382Z,100923.41
2023-05-21T17:46:51.749Z,100923.41
2023-05-21T17:49:36.738Z,100923.94
2023-05-21T17:52:21.596Z,100913.25
2023-05-21T17:55:08.621Z,100920.41
2023-05-21T17:57:53.357Z,100918.38
2023-05-21T18:00:38.646Z,100923.28
2023-05-21T18:03:23.925Z,100929.31
2023-05-21T18:06:10.799Z,100933.72
2023-05-21T18:08:56.007Z,100929.00
2023-05-21T18:11:42.782Z,100925.97
2023-05-21T18:14:28.008Z,100929.41
2023-05-21T18:17:13.512Z,100933.25
2023-05-21T18:19:58.772Z,100933.72
2023-05-21T18:22:44.878Z,100937.38
2023-05-21T18:25:30.608Z,100933.38
2023-05-21T18:28:16.284Z,100934.56
2023-05-21T18:31:03.769Z,100931.25
2023-05-21T18:33:49.097Z,100932.56
2023-05-21T18:36:39.828Z,100942.88
2023-05-21T18:39:24.949Z,100944.00
2023-05-21T18:42:13.562Z,100939.16
2023-05-21T18:45:07.428Z,100950.88
2023-05-21T18:47:52.381Z,100949.06
2023-05-21T18:50:38.232Z,100954.03
2023-05-21T18:53:23.239Z,100949.13
2023-05-21T18:56:10.494Z,100948.72
2023-05-21T18:58:55.785Z,100941.50
2023-05-21T19:01:40.709Z,100939.72
2023-05-21T19:04:28.720Z,100939.13
2023-05-21T19:07:16.728Z,100946.78
2023-05-21T19:10:04.475Z,100946.16
2023-05-21T19:12:49.800Z,100950.31
2023-05-21T19:15:35.360Z,100953.31
2023-05-21T19:18:22.249Z,100950.31
2023-05-21T19:21:11.054Z,100958.66
2023-05-21T19:23:56.375Z,100963.13
2023-05-21T19:26:41.474Z,100958.19
2023-05-21T19:29:28.798Z,100966.06
2023-05-21T19:32:19.034Z,100963.72
2023-05-21T19:35:06.372Z,100970.59
2023-05-21T19:37:52.068Z,100976.13
2023-05-21T19:40:38.139Z,100976.13
2023-05-21T19:43:24.499Z,100975.00
2023-05-21T19:46:10.776Z,100981.28
2023-05-21T19:48:57.554Z,100975.47
2023-05-21T19:51:42.607Z,100984.28
2023-05-21T19:54:28.532Z,100987.78
2023-05-21T19:57:13.855Z,100989.84
2023-05-21T20:00:02.402Z,100992.25
2023-05-21T20:02:47.554Z,100992.50
2023-05-21T20:05:32.725Z,100987.03
2023-05-21T20:08:24.955Z,100989.75
2023-05-21T20:11:10.827Z,100993.69
2023-05-21T20:13:58.309Z,101004.47
2023-05-21T20:16:46.902Z,100995.75
2023-05-21T20:19:32.735Z,101000.94
2023-05-21T20:22:20.802Z,100998.84
2023-05-21T20:25:09.965Z,100988.63
2023-05-21T20:27:56.877Z,100994.66
2023-05-21T20:30:59.035Z,100993.06
2023-05-21T20:33:44.120Z,100993.31
2023-05-21T20:36:30.390Z,100997.56
2023-05-21T20:39:16.061Z,100993.34
2023-05-21T20:42:02.673Z,100986.22
2023-05-21T20:44:51.788Z,100993.56
2023-05-21T20:47:38.351Z,101002.72
2023-05-21T20:50:25.953Z,101010.19
2023-05-21T20:53:15.604Z,101005.75
2023-05-21T20:56:01.383Z,101003.56
2023-05-21T20:58:48.603Z,101001.69
2023-05-21T21:01:33.925Z,101004.13
2023-05-21T21:04:18.892Z,101008.88
2023-05-21T21:07:07.767Z,101010.31
2023-05-21T21:09:53.636Z,101013.34
2023-05-21T21:12:38.356Z,101016.47
2023-05-21T21:15:25.414Z,101019.81
2023-05-21T21:18:12.485Z,101020.53
2023-05-21T21:20:57.652Z,101019.88
2023-05-21T21:23:42.602Z,101020.91
2023-05-21T21:26:28.839Z,101013.06
2023-05-21T21:29:13.930Z,101023.84
2023-05-21T21:31:59.058Z,101021.28
2023-05-21T21:34:44.179Z,101018.63
2023-05-21T21:37:29.417Z,101013.03
2023-05-21T21:40:14.691Z,101019.94
2023-05-21T21:42:59.665Z,101021.38
2023-05-21T21:45:44.721Z,101021.56
2023-05-21T21:48:29.883Z,101015.56
2023-05-21T21:51:15.492Z,101020.41
2023-05-21T21:54:00.680Z,101015.81
2023-05-21T21:56:45.662Z,101001.81
2023-05-21T21:59:30.589Z,101012.31
2023-05-21T22:02:18.301Z,101004.75
2023-05-21T22:05:03.529Z,101014.78
2023-05-21T22:07:49.250Z,101009.66
2023-05-21T22:10:37.852Z,101009.06
2023-05-21T22:13:24.466Z,101012.78
2023-05-21T22:16:11.592Z,101012.09
2023-05-21T22:18:57.886Z,101006.88
2023-05-21T22:21:43.163Z,101003.84
2023-05-21T22:24:32.808Z,101000.25
2023-05-21T22:27:18.491Z,100993.25
2023-05-21T22:30:04.582Z,101002.09
2023-05-21T22:32:49.714Z,100995.09
2023-05-21T22:35:35.140Z,100995.09
2023-05-21T22:38:20.721Z,100996.66
2023-05-21T22:41:05.804Z,100992.97
2023-05-21T22:43:52.113Z,101003.47
2023-05-21T22:46:38.492Z,100998.69
2023-05-21T22:49:23.416Z,100998.69
2023-05-21T22:52:09.198Z,100995.88
2023-05-21T22:54:54.140Z,100993.94
2023-05-21T22:57:40.763Z,100999.22
2023-05-21T23:00:26.033Z,101006.59
2023-05-21T23:03:11.432Z,100989.44
2023-05-21T23:05:56.401Z,100989.50
2023-05-21T23:08:41.773Z,100991.72
2023-05-21T23:11:26.569Z,100994.66
2023-05-21T23:14:11.519Z,100989.53
2023-05-21T23:17:01.614Z,100991.91
2023-05-21T23:19:50.174Z,101001.41
2023-05-21T23:22:35.810Z,100998.56
2023-05-21T23:25:20.796Z,100996.16
2023-05-21T23:28:06.060Z,100993.59
2023-05-21T23:30:51.513Z,100991.91
2023-05-21T23:33:36.859Z,100997.03
2023-05-21T23:36:21.555Z,100999.13
2023-05-21T23:39:06.494Z,100996.97
2023-05-21T23:41:52.269Z,100993.00
2023-05-21T23:44:37.864Z,100996.16
2023-05-21T23:47:23.211Z,100997.69
2023-05-21T23:50:08.648Z,100999.56
2023-05-21T23:52:53.740Z,100999.81
2023-05-21T23:55:39.178Z,100994.66
2023-05-21T23:58:24.424Z,100986.38
